Terminal Aerodrome Forecast
Issued by NWS Wilmington, OH

Home | Current Version | Previous Version | Text Only | Print | Product List | Glossary On
Versions: 1 2 3 4 5 6 7 8 9 10 11 12 13 14 15 16 17 18 19 20 21 22 23 24 25 26 27 28 29 30 31 32 33 34
000
FTUS41 KILN 262100 AAB
TAFCVG
TAF AMD
KCVG 262127Z 2621/2724 VRB03KT P6SM SCT030 BKN150
     FM270400 32006KT P6SM BKN015
     FM271400 31010KT P6SM BKN025
     FM271800 30012KT P6SM BKN035=

USA.gov is the U.S. government's official web portal to all federal, state and local government web resources and services.